
Distance (Route):
Temperature : -52.4°C
Humidity : 11.3%
Pressure : 0hPa| Receiver | Frames | First received | Last received |
|---|---|---|---|
| LZ4TU-5 | 85 | 2026-09-03 01:06:24 | 2026-09-03 01:44:39 |
| Receiver | Date | Latitude | Longitude | Direction | Speed | Altitude | Climb | Temperature | Humidity | Pressure | Voltage | Killtimer | Uptime | BKT | XDATA |
|---|---|---|---|---|---|---|---|---|---|---|---|---|---|---|---|
| LZ4TU-5 | 2026-09-03 01:44:39 | 40.81123 | 23.78445 | 50° | 82km/h | 11590m | -15.8m/s | -52.4°C | 11.3% | 0hPa | 0V | 00:00:00 | 00:00:00 | 00:00:00 | |
| LZ4TU-5 | 2026-09-03 01:44:34 | 40.81056 | 23.78341 | 51° | 80km/h | 11672m | -15.6m/s | -52.4°C | 11.3% | 0hPa | 0V | 00:00:00 | 00:00:00 | 00:00:00 | |
| LZ4TU-5 | 2026-09-03 01:43:26 | 40.80194 | 23.76521 | 64° | 104km/h | 12838m | -17.5m/s | -52.4°C | 11.3% | 0hPa | 0V | 00:00:00 | 00:00:00 | 00:00:00 | |
| LZ4TU-5 | 2026-09-03 01:43:21 | 40.80130 | 23.76366 | 61° | 108km/h | 12930m | -17.7m/s | -52.4°C | 11.3% | 0hPa | 0V | 00:00:00 | 00:00:00 | 00:00:00 | |
| LZ4TU-5 | 2026-09-03 01:42:15 | 40.79396 | 23.73985 | 74° | 108km/h | 14164m | -19.7m/s | 0°C | 0% | 0hPa | 0V | 00:00:00 | 00:00:00 | 00:00:00 | |
| LZ4TU-5 | 2026-09-03 01:42:10 | 40.79358 | 23.73818 | 74° | 104km/h | 14263m | -19.2m/s | 0°C | 0% | 0hPa | 0V | 00:00:00 | 00:00:00 | 00:00:00 | |
| LZ4TU-5 | 2026-09-03 01:42:05 | 40.79321 | 23.73652 | 74° | 102km/h | 14363m | -19.5m/s | -52.4°C | 11.3% | 0hPa | 0V | 00:00:00 | 00:00:00 | 00:00:00 | |
| LZ4TU-5 | 2026-09-03 01:42:01 | 40.79288 | 23.73522 | 70° | 102km/h | 14444m | -19.8m/s | -52.4°C | 11.3% | 0hPa | 0V | 00:00:00 | 00:00:00 | 00:00:00 | |
| LZ4TU-5 | 2026-09-03 01:41:56 | 40.79236 | 23.73363 | 66° | 108km/h | 14544m | -19.2m/s | -52.4°C | 0% | 0hPa | 0V | 00:00:00 | 00:00:00 | 00:00:00 | |
| LZ4TU-5 | 2026-09-03 01:40:50 | 40.78754 | 23.71384 | 86° | 47km/h | 15944m | -21.5m/s | 0°C | 0% | 0hPa | 0V | 00:00:00 | 00:00:00 | 00:00:00 | |
| LZ4TU-5 | 2026-09-03 01:40:45 | 40.78744 | 23.71312 | 78° | 38km/h | 16055m | -21.8m/s | 0°C | 0% | 0hPa | 0V | 00:00:00 | 00:00:00 | 00:00:00 | |
| LZ4TU-5 | 2026-09-03 01:40:39 | 40.78728 | 23.71242 | 61° | 38km/h | 16190m | -21.7m/s | -52.4°C | 11.3% | 0hPa | 0V | 00:00:00 | 00:00:00 | 00:00:00 | |
| LZ4TU-5 | 2026-09-03 01:40:34 | 40.78703 | 23.71181 | 62° | 47km/h | 16304m | -22.9m/s | -52.4°C | 11.3% | 0hPa | 0V | 00:00:00 | 00:00:00 | 00:00:00 | |
| LZ4TU-5 | 2026-09-03 01:39:28 | 40.78382 | 23.70099 | 76° | 46km/h | 17937m | -25.6m/s | 0°C | 0% | 0hPa | 0V | 00:00:00 | 00:00:00 | 00:00:00 | |
| LZ4TU-5 | 2026-09-03 01:39:24 | 40.78376 | 23.70039 | 87° | 46km/h | 18043m | -25.6m/s | 0°C | 0% | 0hPa | 0V | 00:00:00 | 00:00:00 | 00:00:00 | |
| LZ4TU-5 | 2026-09-03 01:39:18 | 40.78366 | 23.69944 | 85° | 46km/h | 18204m | -27.1m/s | -52.4°C | 11.3% | 0hPa | 0V | 00:00:00 | 00:00:00 | 00:00:00 | |
| LZ4TU-5 | 2026-09-03 01:39:14 | 40.78362 | 23.69884 | 87° | 40km/h | 18312m | -26.9m/s | -52.4°C | 11.3% | 0hPa | 0V | 00:00:00 | 00:00:00 | 00:00:00 | |
| LZ4TU-5 | 2026-09-03 01:38:08 | 40.78350 | 23.69430 | 0° | 0km/h | 20233m | -30.8m/s | 0°C | 0% | 0hPa | 0V | 00:00:00 | 00:00:00 | 00:00:00 | |
| LZ4TU-5 | 2026-09-03 01:38:04 | 40.78349 | 23.69424 | 37° | 7km/h | 20360m | -30.5m/s | 0°C | 0% | 0hPa | 0V | 00:00:00 | 00:00:00 | 00:00:00 | |
| LZ4TU-5 | 2026-09-03 01:37:56 | 40.78338 | 23.69410 | 62° | 9km/h | 20615m | -31.6m/s | 0°C | 0% | 0hPa | 0V | 00:00:00 | 00:00:00 | 00:00:00 | |
| LZ4TU-5 | 2026-09-03 01:37:45 | 40.78319 | 23.69373 | 67° | 15km/h | 20976m | -32.0m/s | 0°C | 0% | 0hPa | 0V | 00:00:00 | 00:00:00 | 00:00:00 | |
| LZ4TU-5 | 2026-09-03 01:37:41 | 40.78315 | 23.69350 | 91° | 20km/h | 21110m | -33.4m/s | 0°C | 0% | 0hPa | 0V | 00:00:00 | 00:00:00 | 00:00:00 | |
| LZ4TU-5 | 2026-09-03 01:37:36 | 40.78322 | 23.69321 | 129° | 15km/h | 21276m | -32.6m/s | 0°C | 0% | 0hPa | 0V | 00:00:00 | 00:00:00 | 00:00:00 | |
| LZ4TU-5 | 2026-09-03 01:37:32 | 40.78331 | 23.69308 | 142° | 15km/h | 21410m | -33.6m/s | 0°C | 0% | 0hPa | 0V | 00:00:00 | 00:00:00 | 00:00:00 | |
| LZ4TU-5 | 2026-09-03 01:37:28 | 40.78340 | 23.69289 | 123° | 20km/h | 21546m | -32.6m/s | 0°C | 0% | 0hPa | 0V | 00:00:00 | 00:00:00 | 00:00:00 | |
| LZ4TU-5 | 2026-09-03 01:37:13 | 40.78399 | 23.69195 | 154° | 22km/h | 22056m | -33.7m/s | 0°C | 0% | 0hPa | 0V | 00:00:00 | 00:00:00 | 00:00:00 | |
| LZ4TU-5 | 2026-09-03 01:37:04 | 40.78419 | 23.69184 | 211° | 2km/h | 22369m | -35.4m/s | -52.4°C | 11.3% | 0hPa | 0V | 00:00:00 | 00:00:00 | 00:00:00 | |
| LZ4TU-5 | 2026-09-03 01:37:00 | 40.78420 | 23.69180 | 324° | 2km/h | 22513m | -34.8m/s | -52.4°C | 11.3% | 0hPa | 0V | 00:00:00 | 00:00:00 | 00:00:00 | |
| LZ4TU-5 | 2026-09-03 01:35:54 | 40.78466 | 23.69375 | 250° | 15km/h | 25256m | -48.0m/s | 0°C | 0% | 0hPa | 0V | 00:00:00 | 00:00:00 | 00:00:00 | |
| LZ4TU-5 | 2026-09-03 01:35:50 | 40.78472 | 23.69392 | 252° | 15km/h | 25453m | -47.1m/s | 0°C | 0% | 0hPa | 0V | 00:00:00 | 00:00:00 | 00:00:00 | |
| LZ4TU-5 | 2026-09-03 01:35:45 | 40.78484 | 23.69408 | 213° | 20km/h | 25687m | -42.1m/s | 0°C | 0% | 0hPa | 0V | 00:00:00 | 00:00:00 | 00:00:00 | |
| LZ4TU-5 | 2026-09-03 01:35:36 | 40.78514 | 23.69436 | 208° | 15km/h | 26055m | -40.4m/s | -52.4°C | 11.3% | 0hPa | 0V | 00:00:00 | 00:00:00 | 00:00:00 | |
| LZ4TU-5 | 2026-09-03 01:35:28 | 40.78540 | 23.69477 | 252° | 13km/h | 26390m | -42.2m/s | -52.4°C | 11.3% | 0hPa | 0V | 00:00:00 | 00:00:00 | 00:00:00 | |
| LZ4TU-5 | 2026-09-03 01:35:23 | 40.78547 | 23.69509 | 263° | 24km/h | 26609m | -40.7m/s | -52.4°C | 11.3% | 0hPa | 0V | 00:00:00 | 00:00:00 | 00:00:00 | |
| LZ4TU-5 | 2026-09-03 01:35:15 | 40.78550 | 23.69554 | 272° | 22km/h | 26953m | -42.5m/s | -52.4°C | 11.3% | 0hPa | 0V | 00:00:00 | 00:00:00 | 00:00:00 | |
| LZ4TU-5 | 2026-09-03 01:35:07 | 40.78540 | 23.69617 | 287° | 20km/h | 27311m | -42.1m/s | -52.4°C | 0% | 0hPa | 0V | 00:00:00 | 00:00:00 | 00:00:00 | |
| LZ4TU-5 | 2026-09-03 01:35:01 | 40.78518 | 23.69655 | 318° | 24km/h | 27575m | -45.7m/s | -52.4°C | 11.3% | 0hPa | 0V | 00:00:00 | 00:00:00 | 00:00:00 | |
| LZ4TU-5 | 2026-09-03 01:33:55 | 40.78376 | 23.70113 | 278° | 57km/h | 30959m | -41.9m/s | 0°C | 0% | 0hPa | 0V | 00:00:00 | 00:00:00 | 00:00:00 | |
| LZ4TU-5 | 2026-09-03 01:33:50 | 40.78371 | 23.70191 | 271° | 40km/h | 31058m | 3.6m/s | 0°C | 0% | 0hPa | 0V | 00:00:00 | 00:00:00 | 00:00:00 | |
| LZ4TU-5 | 2026-09-03 01:33:45 | 40.78378 | 23.70247 | 277° | 16km/h | 31037m | 4.6m/s | -52.4°C | 11.3% | 0hPa | 0V | 00:00:00 | 00:00:00 | 00:00:00 | |
| LZ4TU-5 | 2026-09-03 01:33:40 | 40.78367 | 23.70284 | 281° | 40km/h | 31016m | 4.8m/s | -52.4°C | 11.3% | 0hPa | 0V | 00:00:00 | 00:00:00 | 00:00:00 | |
| LZ4TU-5 | 2026-09-03 01:32:35 | 40.78332 | 23.70866 | 274° | 29km/h | 30722m | 4.6m/s | 0°C | 0% | 0hPa | 0V | 00:00:00 | 00:00:00 | 00:00:00 | |
| LZ4TU-5 | 2026-09-03 01:32:24 | 40.78316 | 23.70979 | 267° | 29km/h | 30674m | 4.4m/s | -52.4°C | 11.3% | 0hPa | 0V | 00:00:00 | 00:00:00 | 00:00:00 | |
| LZ4TU-5 | 2026-09-03 01:32:20 | 40.78312 | 23.71010 | 297° | 26km/h | 30657m | 4.3m/s | -52.4°C | 11.3% | 0hPa | 0V | 00:00:00 | 00:00:00 | 00:00:00 | |
| LZ4TU-5 | 2026-09-03 01:31:14 | 40.78164 | 23.71553 | 316° | 22km/h | 30392m | 3.5m/s | 0°C | 0% | 0hPa | 0V | 00:00:00 | 00:00:00 | 00:00:00 | |
| LZ4TU-5 | 2026-09-03 01:31:09 | 40.78138 | 23.71595 | 294° | 42km/h | 30373m | 3.9m/s | 0°C | 0% | 0hPa | 0V | 00:00:00 | 00:00:00 | 00:00:00 | |
| LZ4TU-5 | 2026-09-03 01:31:04 | 40.78128 | 23.71647 | 302° | 20km/h | 30355m | 3.9m/s | -52.4°C | 11.3% | 0hPa | 0V | 00:00:00 | 00:00:00 | 00:00:00 | |
| LZ4TU-5 | 2026-09-03 01:30:59 | 40.78101 | 23.71688 | 301° | 44km/h | 30336m | 3.5m/s | -52.4°C | 0% | 0hPa | 0V | 00:00:00 | 00:00:00 | 00:00:00 | |
| LZ4TU-5 | 2026-09-03 01:29:54 | 40.77999 | 23.72237 | 304° | 27km/h | 30098m | 4.1m/s | 0°C | 0% | 0hPa | 0V | 00:00:00 | 00:00:00 | 00:00:00 | |
| LZ4TU-5 | 2026-09-03 01:29:49 | 40.77995 | 23.72284 | 246° | 31km/h | 30078m | 4.0m/s | 0°C | 0% | 0hPa | 0V | 00:00:00 | 00:00:00 | 00:00:00 | |
| LZ4TU-5 | 2026-09-03 01:29:43 | 40.77993 | 23.72320 | 309° | 24km/h | 30054m | 3.4m/s | -52.4°C | 11.3% | 0hPa | 0V | 00:00:00 | 00:00:00 | 00:00:00 | |
| LZ4TU-5 | 2026-09-03 01:29:38 | 40.77991 | 23.72372 | 259° | 31km/h | 30034m | 3.8m/s | -52.4°C | 11.3% | 0hPa | 0V | 00:00:00 | 00:00:00 | 00:00:00 | |
| LZ4TU-5 | 2026-09-03 01:28:32 | 40.77947 | 23.72851 | 245° | 26km/h | 29750m | 4.5m/s | 0°C | 0% | 0hPa | 0V | 00:00:00 | 00:00:00 | 00:00:00 | |
| LZ4TU-5 | 2026-09-03 01:28:27 | 40.77953 | 23.72877 | 320° | 7km/h | 29727m | 4.6m/s | 0°C | 0% | 0hPa | 0V | 00:00:00 | 00:00:00 | 00:00:00 | |
| LZ4TU-5 | 2026-09-03 01:28:22 | 40.77947 | 23.72897 | 265° | 27km/h | 29703m | 4.7m/s | -52.4°C | 11.3% | 0hPa | 0V | 00:00:00 | 00:00:00 | 00:00:00 | |
| LZ4TU-5 | 2026-09-03 01:28:17 | 40.77952 | 23.72923 | 139° | 4km/h | 29681m | 4.8m/s | -52.4°C | 11.3% | 0hPa | 0V | 00:00:00 | 00:00:00 | 00:00:00 | |
| LZ4TU-5 | 2026-09-03 01:27:12 | 40.77882 | 23.73129 | 268° | 16km/h | 29396m | 3.8m/s | 0°C | 0% | 0hPa | 0V | 00:00:00 | 00:00:00 | 00:00:00 | |
| LZ4TU-5 | 2026-09-03 01:27:08 | 40.77869 | 23.73151 | 322° | 24km/h | 29379m | 3.6m/s | 0°C | 0% | 0hPa | 0V | 00:00:00 | 00:00:00 | 00:00:00 | |
| LZ4TU-5 | 2026-09-03 01:27:02 | 40.77864 | 23.73199 | 268° | 22km/h | 29355m | 3.6m/s | -52.4°C | 11.3% | 0hPa | 0V | 00:00:00 | 00:00:00 | 00:00:00 | |
| LZ4TU-5 | 2026-09-03 01:26:57 | 40.77848 | 23.73218 | 315° | 27km/h | 29335m | 3.5m/s | -52.4°C | 11.3% | 0hPa | 0V | 00:00:00 | 00:00:00 | 00:00:00 | |
| LZ4TU-5 | 2026-09-03 01:25:45 | 40.77744 | 23.73486 | 282° | 15km/h | 29050m | 4.0m/s | -52.4°C | 11.3% | 0hPa | 0V | 00:00:00 | 00:00:00 | 00:00:00 | |
| LZ4TU-5 | 2026-09-03 01:25:40 | 40.77736 | 23.73509 | 359° | 11km/h | 29031m | 4.5m/s | -52.4°C | 11.3% | 0hPa | 0V | 00:00:00 | 00:00:00 | 00:00:00 | |
| LZ4TU-5 | 2026-09-03 01:24:26 | 40.77458 | 23.74233 | 317° | 69km/h | 28725m | 4.2m/s | -52.4°C | 11.3% | 0hPa | 0V | 00:00:00 | 00:00:00 | 00:00:00 | |
| LZ4TU-5 | 2026-09-03 01:24:21 | 40.77449 | 23.74279 | 193° | 9km/h | 28705m | -0.2m/s | -52.4°C | 11.3% | 0hPa | 0V | 00:00:00 | 00:00:00 | 00:00:00 | |
| LZ4TU-5 | 2026-09-03 01:23:04 | 40.77203 | 23.74912 | 269° | 16km/h | 28367m | 5.3m/s | -52.4°C | 11.3% | 0hPa | 0V | 00:00:00 | 00:00:00 | 00:00:00 | |
| LZ4TU-5 | 2026-09-03 01:23:00 | 40.77209 | 23.74927 | 306° | 15km/h | 28351m | 4.5m/s | -52.4°C | 11.3% | 0hPa | 0V | 00:00:00 | 00:00:00 | 00:00:00 | |
| LZ4TU-5 | 2026-09-03 01:21:28 | 40.76840 | 23.75152 | 249° | 42km/h | 28003m | 1.8m/s | -52.4°C | 11.3% | 0hPa | 0V | 00:00:00 | 00:00:00 | 00:00:00 | |
| LZ4TU-5 | 2026-09-03 01:21:23 | 40.76821 | 23.75156 | 349° | 38km/h | 27989m | -0.3m/s | -52.4°C | 11.3% | 0hPa | 0V | 00:00:00 | 00:00:00 | 00:00:00 | |
| LZ4TU-5 | 2026-09-03 01:16:32 | 40.76119 | 23.77374 | 85° | 15km/h | 26838m | 1.9m/s | -52.4°C | 11.3% | 0hPa | 0V | 00:00:00 | 00:00:00 | 00:00:00 | |
| LZ4TU-5 | 2026-09-03 01:16:27 | 40.76102 | 23.77411 | 236° | 40km/h | 26821m | 4.3m/s | -52.4°C | 0% | 0hPa | 0V | 00:00:00 | 00:00:00 | 00:00:00 | |
| LZ4TU-5 | 2026-09-03 01:15:13 | 40.76119 | 23.77959 | 308° | 15km/h | 26523m | 7.0m/s | -52.4°C | 11.3% | 0hPa | 0V | 00:00:00 | 00:00:00 | 00:00:00 | |
| LZ4TU-5 | 2026-09-03 01:15:09 | 40.76108 | 23.78005 | 248° | 44km/h | 26506m | 5.2m/s | -52.4°C | 11.3% | 0hPa | 0V | 00:00:00 | 00:00:00 | 00:00:00 | |
| LZ4TU-5 | 2026-09-03 01:13:58 | 40.76356 | 23.78514 | 167° | 20km/h | 26200m | 2.9m/s | -52.4°C | 11.3% | 0hPa | 0V | 00:00:00 | 00:00:00 | 00:00:00 | |
| LZ4TU-5 | 2026-09-03 01:13:53 | 40.76380 | 23.78550 | 295° | 18km/h | 26181m | 4.9m/s | -52.4°C | 0% | 0hPa | 0V | 00:00:00 | 00:00:00 | 00:00:00 | |
| LZ4TU-5 | 2026-09-03 01:12:41 | 40.76512 | 23.78790 | 126° | 4km/h | 25899m | 3.6m/s | -52.4°C | 11.3% | 0hPa | 0V | 00:00:00 | 00:00:00 | 00:00:00 | |
| LZ4TU-5 | 2026-09-03 01:12:37 | 40.76540 | 23.78796 | 236° | 38km/h | 25884m | 5.4m/s | -52.4°C | 11.3% | 0hPa | 0V | 00:00:00 | 00:00:00 | 00:00:00 | |
| LZ4TU-5 | 2026-09-03 01:12:32 | 40.76541 | 23.78829 | 144° | 33km/h | 25864m | 6.4m/s | -52.4°C | 11.3% | 0hPa | 0V | 00:00:00 | 00:00:00 | 00:00:00 | |
| LZ4TU-5 | 2026-09-03 01:12:28 | 40.76567 | 23.78850 | 275° | 46km/h | 25850m | 4.0m/s | -52.4°C | 11.3% | 0hPa | 0V | 00:00:00 | 00:00:00 | 00:00:00 | |
| LZ4TU-5 | 2026-09-03 01:11:15 | 40.76694 | 23.79096 | 236° | 37km/h | 25583m | 2.9m/s | -52.4°C | 11.3% | 0hPa | 0V | 00:00:00 | 00:00:00 | 00:00:00 | |
| LZ4TU-5 | 2026-09-03 01:11:10 | 40.76691 | 23.79123 | 178° | 9km/h | 25564m | 3.4m/s | -52.4°C | 11.3% | 0hPa | 0V | 00:00:00 | 00:00:00 | 00:00:00 | |
| LZ4TU-5 | 2026-09-03 01:09:33 | 40.76936 | 23.79397 | 193° | 35km/h | 25158m | 5.3m/s | -52.4°C | 11.3% | 0hPa | 0V | 00:00:00 | 00:00:00 | 00:00:00 | |
| LZ4TU-5 | 2026-09-03 01:09:28 | 40.76935 | 23.79412 | 84° | 20km/h | 25134m | 4.6m/s | -52.4°C | 11.3% | 0hPa | 0V | 00:00:00 | 00:00:00 | 00:00:00 | |
| LZ4TU-5 | 2026-09-03 01:07:48 | 40.76936 | 23.79809 | 189° | 11km/h | 24708m | 4.8m/s | -52.4°C | 11.3% | 0hPa | 0V | 00:00:00 | 00:00:00 | 00:00:00 | |
| LZ4TU-5 | 2026-09-03 01:07:43 | 40.76930 | 23.79832 | 187° | 13km/h | 24687m | 7.0m/s | -52.4°C | 0% | 0hPa | 0V | 00:00:00 | 00:00:00 | 00:00:00 | |
| LZ4TU-5 | 2026-09-03 01:06:24 | 40.76903 | 23.80297 | 254° | 22km/h | 24396m | 3.3m/s | -52.4°C | 11.3% | 0hPa | 0V | 00:00:00 | 00:00:00 | 00:00:00 |